| time (UTC) | temp F | wind direction | speed MPH | gust MPH | rain 1hr in | rain 24hr in | rain mn in | humidity % | barometer mb |
| 20260831031757 | 66 | 0.0 | 0.0 | 0.00 | 0.00 | 0.00 | 61 | 1016.1 | |
| 20260831030717 | 67 | 0.0 | 0.0 | 0.00 | 0.00 | 0.00 | 59 | 1016.2 | |
| 20260831025737 | 69 | 45 | 1.0 | 2.0 | 0.00 | 0.00 | 0.00 | 54 | 1016.2 |
| 20260831024737 | 70 | 45 | 2.0 | 4.0 | 0.00 | 0.00 | 0.00 | 51 | 1016.2 |
| 20260831023717 | 70 | 23 | 2.0 | 3.0 | 0.00 | 0.00 | 0.00 | 50 | 1016.3 |
| 20260831022737 | 71 | 23 | 3.0 | 6.0 | 0.00 | 0.00 | 0.00 | 49 | 1016.4 |
| 20260831021717 | 71 | 23 | 2.0 | 3.0 | 0.00 | 0.00 | 0.00 | 49 | 1016.5 |
| 20260831020717 | 72 | 23 | 4.0 | 6.0 | 0.00 | 0.00 | 0.00 | 49 | 1016.6 |
| 20260831015717 | 72 | 45 | 2.0 | 4.0 | 0.00 | 0.00 | 0.00 | 49 | 1016.5 |
| 20260831014717 | 72 | 45 | 3.0 | 5.0 | 0.00 | 0.00 | 0.00 | 48 | 1016.6 |
| 20260831013717 | 72 | 0 | 4.0 | 6.0 | 0.00 | 0.00 | 0.00 | 48 | 1016.7 |
| 20260831012757 | 73 | 23 | 4.0 | 7.0 | 0.00 | 0.00 | 0.00 | 48 | 1016.6 |
| 20260831011717 | 73 | 45 | 3.0 | 5.0 | 0.00 | 0.00 | 0.00 | 48 | 1016.8 |
| 20260831010717 | 73 | 315 | 3.0 | 6.0 | 0.00 | 0.00 | 0.00 | 49 | 1016.8 |
| 20260831005737 | 73 | 248 | 2.0 | 4.0 | 0.00 | 0.00 | 0.00 | 49 | 1016.8 |
| 20260831004737 | 73 | 315 | 3.0 | 6.0 | 0.00 | 0.00 | 0.00 | 49 | 1017.1 |
| 20260831003717 | 73 | 23 | 3.0 | 5.0 | 0.00 | 0.00 | 0.00 | 50 | 1017.1 |
| 20260831002717 | 73 | 45 | 3.0 | 4.0 | 0.00 | 0.00 | 0.00 | 50 | 1017.0 |
| 20260831001717 | 73 | 23 | 3.0 | 6.0 | 0.00 | 0.00 | 0.00 | 49 | 1017.2 |
| 20260831000717 | 73 | 45 | 2.0 | 5.0 | 0.00 | 0.00 | 0.00 | 49 | 1017.3 |
| 20260830235737 | 72 | 338 | 3.0 | 5.0 | 0.00 | 0.00 | 0.00 | 49 | 1017.2 |
| 20260830234717 | 72 | 23 | 3.0 | 5.0 | 0.00 | 0.00 | 0.00 | 50 | 1017.4 |
| 20260830233717 | 72 | 293 | 1.0 | 2.0 | 0.00 | 0.00 | 0.00 | 50 | 1017.4 |
| 20260830232717 | 72 | 293 | 1.0 | 2.0 | 0.00 | 0.00 | 0.00 | 50 | 1017.4 |
| 20260830231717 | 72 | 293 | 2.0 | 3.0 | 0.00 | 0.00 | 0.00 | 50 | 1017.6 |
| 20260830230717 | 72 | 0 | 3.0 | 5.0 | 0.00 | 0.00 | 0.00 | 50 | 1017.7 |
| 20260830225717 | 72 | 23 | 1.0 | 3.0 | 0.00 | 0.00 | 0.00 | 49 | 1017.7 |
| 20260830224717 | 73 | 315 | 2.0 | 5.0 | 0.00 | 0.00 | 0.00 | 47 | 1017.8 |
| 20260830223757 | 73 | 293 | 1.0 | 2.0 | 0.00 | 0.00 | 0.00 | 49 | 1017.9 |
| 20260830222717 | 73 | 45 | 3.0 | 4.0 | 0.00 | 0.00 | 0.00 | 49 | 1018.0 |
| 20260830221717 | 73 | 68 | 2.0 | 4.0 | 0.00 | 0.00 | 0.00 | 48 | 1018.2 |
| 20260830220717 | 74 | 293 | 5.0 | 7.0 | 0.00 | 0.00 | 0.00 | 47 | 1018.4 |
| 20260830215717 | 73 | 315 | 3.0 | 4.0 | 0.00 | 0.00 | 0.00 | 48 | 1018.4 |
| 20260830214717 | 73 | 293 | 1.0 | 2.0 | 0.00 | 0.00 | 0.00 | 49 | 1018.6 |
| 20260830213717 | 73 | 23 | 3.0 | 5.0 | 0.00 | 0.00 | 0.00 | 50 | 1018.7 |
| 20260830212737 | 73 | 293 | 3.0 | 5.0 | 0.00 | 0.00 | 0.00 | 49 | 1018.8 |
| 20260830211717 | 74 | 293 | 4.0 | 7.0 | 0.00 | 0.00 | 0.00 | 48 | 1019.0 |
| 20260830210717 | 73 | 248 | 3.0 | 5.0 | 0.00 | 0.00 | 0.00 | 51 | 1018.9 |
| 20260830205737 | 71 | 203 | 2.0 | 5.0 | 0.00 | 0.00 | 0.00 | 51 | 1018.9 |
| 20260830204717 | 72 | 248 | 1.0 | 2.0 | 0.00 | 0.00 | 0.00 | 50 | 1019.1 |
| 20260830203717 | 71 | 225 | 4.0 | 7.0 | 0.00 | 0.00 | 0.00 | 54 | 1019.1 |
| 20260830202717 | 70 | 45 | 1.0 | 6.0 | 0.00 | 0.00 | 0.00 | 56 | 1019.2 |
| 20260830201717 | 70 | 90 | 1.0 | 2.0 | 0.00 | 0.00 | 0.00 | 56 | 1019.2 |
| 20260830200717 | 71 | 0 | 1.0 | 3.0 | 0.00 | 0.00 | 0.00 | 54 | 1019.4 |
| 20260830195717 | 69 | 0.0 | 0.0 | 0.00 | 0.00 | 0.00 | 55 | 1019.3 | |
| 20260830194717 | 69 | 0.0 | 0.0 | 0.00 | 0.00 | 0.00 | 55 | 1019.4 | |
| 20260830193717 | 67 | 0.0 | 0.0 | 0.00 | 0.00 | 0.00 | 60 | 1019.4 | |
| 20260830192717 | 67 | 293 | 3.0 | 6.0 | 0.00 | 0.00 | 0.00 | 61 | 1019.5 |
| 20260830191717 | 67 | 0.0 | 3.0 | 0.00 | 0.00 | 0.00 | 61 | 1019.6 | |
| 20260830190717 | 68 | 315 | 2.0 | 5.0 | 0.00 | 0.00 | 0.00 | 59 | 1019.6 |
| 20260830185717 | 68 | 0.0 | 1.0 | 0.00 | 0.00 | 0.00 | 60 | 1019.6 | |
| 20260830184737 | 67 | 180 | 2.0 | 4.0 | 0.00 | 0.00 | 0.00 | 63 | 1019.7 |
| 20260830183717 | 66 | 23 | 3.0 | 4.0 | 0.00 | 0.00 | 0.00 | 65 | 1019.7 |
| 20260830182717 | 65 | 68 | 1.0 | 3.0 | 0.00 | 0.00 | 0.00 | 67 | 1019.7 |
| 20260830181737 | 64 | 68 | 1.0 | 4.0 | 0.00 | 0.00 | 0.00 | 68 | 1019.9 |
| 20260830180717 | 63 | 0.0 | 0.0 | 0.00 | 0.00 | 0.00 | 71 | 1019.9 | |
| 20260830175717 | 62 | 158 | 1.0 | 4.0 | 0.00 | 0.00 | 0.00 | 72 | 1019.9 |
| 20260830174737 | 63 | 270 | 2.0 | 5.0 | 0.00 | 0.00 | 0.00 | 74 | 1019.9 |
| 20260830173717 | 62 | 293 | 2.0 | 4.0 | 0.00 | 0.00 | 0.00 | 76 | 1019.9 |
| 20260830172717 | 60 | 225 | 3.0 | 5.0 | 0.00 | 0.00 | 0.00 | 79 | 1019.9 |
| 20260830171717 | 59 | 0.0 | 0.0 | 0.00 | 0.00 | 0.00 | 83 | 1019.7 | |
| 20260830170717 | 59 | 203 | 1.0 | 4.0 | 0.00 | 0.00 | 0.00 | 84 | 1019.6 |
| 20260830165717 | 58 | 248 | 4.0 | 6.0 | 0.00 | 0.00 | 0.00 | 86 | 1019.7 |
| 20260830164717 | 58 | 248 | 2.0 | 4.0 | 0.00 | 0.00 | 0.00 | 86 | 1019.7 |
| 20260830163717 | 57 | 225 | 2.0 | 3.0 | 0.00 | 0.00 | 0.00 | 86 | 1019.8 |
| 20260830162717 | 57 | 203 | 1.0 | 2.0 | 0.00 | 0.00 | 0.00 | 87 | 1019.8 |
| 20260830161717 | 57 | 248 | 2.0 | 2.0 | 0.00 | 0.00 | 0.00 | 87 | 1019.7 |
| 20260830160737 | 57 | 225 | 1.0 | 2.0 | 0.00 | 0.00 | 0.00 | 87 | 1020.0 |
| 20260830155717 | 57 | 248 | 3.0 | 5.0 | 0.00 | 0.00 | 0.00 | 88 | 1020.0 |
| 20260830154717 | 57 | 248 | 3.0 | 5.0 | 0.00 | 0.00 | 0.00 | 88 | 1020.0 |
| 20260830153737 | 57 | 225 | 3.0 | 5.0 | 0.00 | 0.00 | 0.00 | 89 | 1020.0 |
| 20260830152717 | 57 | 0.0 | 2.0 | 0.00 | 0.00 | 0.00 | 90 | 1020.0 | |
| 20260830151717 | 56 | 225 | 1.0 | 1.0 | 0.00 | 0.00 | 0.00 | 91 | 1019.9 |
| 20260830150757 | 55 | 248 | 1.0 | 3.0 | 0.00 | 0.00 | 0.00 | 91 | 1019.9 |
| 20260830145716 | 55 | 248 | 3.0 | 4.0 | 0.00 | 0.00 | 0.00 | 91 | 1019.8 |
| 20260830144717 | 55 | 225 | 2.0 | 4.0 | 0.00 | 0.00 | 0.00 | 91 | 1019.9 |
| 20260830143716 | 55 | 225 | 3.0 | 3.0 | 0.00 | 0.00 | 0.00 | 91 | 1020.0 |
| 20260830142717 | 55 | 293 | 1.0 | 3.0 | 0.00 | 0.00 | 0.00 | 91 | 1019.8 |
| 20260830141717 | 55 | 270 | 1.0 | 2.0 | 0.00 | 0.00 | 0.00 | 91 | 1019.6 |
| 20260830140737 | 55 | 293 | 2.0 | 3.0 | 0.00 | 0.00 | 0.00 | 91 | 1019.4 |
| 20260830135717 | 54 | 248 | 2.0 | 3.0 | 0.00 | 0.00 | 0.00 | 91 | 1019.4 |
| 20260830134717 | 55 | 225 | 2.0 | 3.0 | 0.00 | 0.00 | 0.00 | 91 | 1019.3 |
| 20260830133737 | 55 | 248 | 2.0 | 4.0 | 0.00 | 0.00 | 0.00 | 91 | 1019.3 |
| 20260830132717 | 55 | 248 | 2.0 | 3.0 | 0.00 | 0.01 | 0.00 | 91 | 1019.3 |
| 20260830131737 | 55 | 248 | 2.0 | 3.0 | 0.00 | 0.01 | 0.00 | 91 | 1019.3 |
| 20260830130716 | 55 | 203 | 2.0 | 3.0 | 0.00 | 0.02 | 0.00 | 91 | 1019.4 |
| 20260830125717 | 55 | 270 | 1.0 | 2.0 | 0.00 | 0.03 | 0.00 | 92 | 1019.4 |
| 20260830124717 | 55 | 293 | 1.0 | 2.0 | 0.00 | 0.03 | 0.00 | 91 | 1019.4 |
| 20260830123717 | 55 | 225 | 2.0 | 3.0 | 0.00 | 0.04 | 0.00 | 91 | 1019.4 |
| 20260830122717 | 54 | 248 | 2.0 | 3.0 | 0.00 | 0.04 | 0.00 | 92 | 1019.5 |
| 20260830121737 | 54 | 0.0 | 2.0 | 0.00 | 0.05 | 0.00 | 91 | 1019.5 | |
| 20260830120717 | 54 | 225 | 1.0 | 2.0 | 0.00 | 0.05 | 0.00 | 92 | 1019.5 |
| 20260830115717 | 54 | 0.0 | 0.0 | 0.00 | 0.05 | 0.00 | 91 | 1019.6 | |
| 20260830114716 | 53 | 0.0 | 0.0 | 0.00 | 0.06 | 0.00 | 91 | 1019.5 | |
| 20260830113717 | 53 | 0.0 | 1.0 | 0.00 | 0.06 | 0.00 | 91 | 1019.4 | |
| 20260830112717 | 53 | 0.0 | 1.0 | 0.00 | 0.06 | 0.00 | 91 | 1019.3 | |
| 20260830111737 | 53 | 0.0 | 0.0 | 0.00 | 0.06 | 0.00 | 91 | 1019.3 | |
| 20260830110716 | 53 | 0.0 | 0.0 | 0.00 | 0.06 | 0.00 | 90 | 1019.3 | |
| 20260830105717 | 53 | 0.0 | 0.0 | 0.00 | 0.06 | 0.00 | 90 | 1019.3 | |
| 20260830104736 | 53 | 0.0 | 0.0 | 0.00 | 0.06 | 0.00 | 90 | 1019.3 | |
| 20260830103717 | 53 | 0.0 | 0.0 | 0.00 | 0.06 | 0.00 | 90 | 1019.3 | |
| 20260830102737 | 53 | 0.0 | 0.0 | 0.00 | 0.06 | 0.00 | 90 | 1019.3 | |
| 20260830101737 | 54 | 0.0 | 1.0 | 0.00 | 0.06 | 0.00 | 90 | 1019.2 | |
| 20260830100716 | 54 | 0.0 | 0.0 | 0.00 | 0.06 | 0.00 | 90 | 1019.2 | |
| 20260830095717 | 54 | 0.0 | 0.0 | 0.00 | 0.06 | 0.00 | 90 | 1019.1 | |
| 20260830094716 | 54 | 248 | 3.0 | 5.0 | 0.00 | 0.06 | 0.00 | 90 | 1019.0 |
| 20260830093717 | 54 | 225 | 2.0 | 5.0 | 0.00 | 0.06 | 0.00 | 90 | 1019.1 |
| 20260830092717 | 54 | 248 | 2.0 | 3.0 | 0.00 | 0.06 | 0.00 | 89 | 1019.1 |
| 20260830091717 | 54 | 203 | 1.0 | 3.0 | 0.00 | 0.06 | 0.00 | 89 | 1019.1 |
| 20260830090717 | 54 | 248 | 3.0 | 4.0 | 0.00 | 0.06 | 0.00 | 89 | 1019.2 |
| 20260830085717 | 55 | 248 | 2.0 | 3.0 | 0.00 | 0.06 | 0.00 | 89 | 1019.2 |
| 20260830084717 | 55 | 203 | 1.0 | 2.0 | 0.00 | 0.06 | 0.00 | 89 | 1019.1 |
| 20260830083717 | 55 | 338 | 1.0 | 2.0 | 0.00 | 0.06 | 0.00 | 89 | 1019.3 |
| 20260830082757 | 55 | 0.0 | 2.0 | 0.00 | 0.06 | 0.00 | 89 | 1019.2 | |
| 20260830081717 | 55 | 225 | 2.0 | 3.0 | 0.00 | 0.06 | 0.00 | 88 | 1019.2 |
| 20260830080736 | 55 | 248 | 3.0 | 5.0 | 0.00 | 0.06 | 0.00 | 88 | 1019.4 |
| 20260830075717 | 55 | 270 | 2.0 | 3.0 | 0.00 | 0.06 | 0.00 | 87 | 1019.3 |
| 20260830074717 | 55 | 0.0 | 0.0 | 0.00 | 0.06 | 0.00 | 87 | 1019.1 | |
| 20260830073716 | 55 | 248 | 2.0 | 2.0 | 0.00 | 0.06 | 0.00 | 87 | 1019.1 |
| 20260830072717 | 55 | 0.0 | 1.0 | 0.00 | 0.06 | 0.00 | 86 | 1019.0 | |
| 20260830071737 | 55 | 0.0 | 1.0 | 0.00 | 0.06 | 0.00 | 86 | 1019.1 | |
| 20260830070717 | 56 | 248 | 1.0 | 2.0 | 0.00 | 0.06 | 0.00 | 86 | 1019.1 |
| 20260830065716 | 56 | 225 | 1.0 | 2.0 | 0.00 | 0.06 | 0.06 | 86 | 1019.2 |
| 20260830064715 | 56 | 203 | 3.0 | 6.0 | 0.00 | 0.06 | 0.06 | 85 | 1019.2 |
| 20260830063715 | 56 | 0.0 | 1.0 | 0.00 | 0.06 | 0.06 | 85 | 1019.2 | |
| 20260830062715 | 56 | 225 | 1.0 | 3.0 | 0.00 | 0.06 | 0.06 | 85 | 1019.1 |
| 20260830061716 | 56 | 225 | 2.0 | 4.0 | 0.00 | 0.06 | 0.06 | 85 | 1019.1 |
| 20260830060715 | 57 | 248 | 2.0 | 3.0 | 0.00 | 0.06 | 0.06 | 84 | 1019.0 |
| 20260830055716 | 57 | 248 | 3.0 | 4.0 | 0.00 | 0.06 | 0.06 | 84 | 1019.1 |
| 20260830054715 | 57 | 225 | 2.0 | 3.0 | 0.00 | 0.06 | 0.06 | 83 | 1019.2 |
| 20260830053715 | 57 | 248 | 3.0 | 4.0 | 0.00 | 0.06 | 0.06 | 82 | 1019.2 |
| 20260830052715 | 57 | 225 | 3.0 | 4.0 | 0.00 | 0.06 | 0.06 | 82 | 1019.1 |
| 20260830051735 | 58 | 225 | 3.0 | 6.0 | 0.00 | 0.06 | 0.06 | 81 | 1019.1 |
| 20260830050715 | 58 | 248 | 2.0 | 5.0 | 0.00 | 0.06 | 0.06 | 81 | 1019.2 |
| 20260830045715 | 58 | 225 | 3.0 | 6.0 | 0.00 | 0.06 | 0.06 | 80 | 1019.1 |
| 20260830044716 | 58 | 225 | 3.0 | 4.0 | 0.00 | 0.06 | 0.06 | 79 | 1019.0 |
| 20260830043715 | 59 | 225 | 1.0 | 3.0 | 0.00 | 0.06 | 0.06 | 79 | 1018.9 |
| 20260830042716 | 59 | 225 | 4.0 | 7.0 | 0.00 | 0.06 | 0.06 | 77 | 1018.8 |
| 20260830041715 | 59 | 225 | 4.0 | 6.0 | 0.00 | 0.06 | 0.06 | 76 | 1018.8 |
| 20260830040715 | 60 | 225 | 4.0 | 7.0 | 0.00 | 0.06 | 0.06 | 74 | 1018.7 |
| 20260830035716 | 60 | 225 | 3.0 | 3.0 | 0.00 | 0.06 | 0.06 | 73 | 1018.7 |
| 20260830034716 | 60 | 225 | 4.0 | 6.0 | 0.00 | 0.06 | 0.06 | 72 | 1018.6 |
| 20260830033715 | 61 | 225 | 3.0 | 5.0 | 0.00 | 0.06 | 0.06 | 72 | 1018.4 |
| 20260830032715 | 61 | 225 | 5.0 | 9.0 | 0.00 | 0.06 | 0.06 | 71 | 1018.3 |